Time;durP1;ratioP1;P1;durP2;ratioP2;P2;SDS_P1;SDS_P2;PMS_P1;PMS_P2;Temp;Humidity;BMP_temperature;BMP_pressure;BME280_temperature;BME280_humidity;BME280_pressure;Samples;Min_cycle;Max_cycle;Signal;HPM_P1;HPM_P2
2022/07/29 00:00:20;;;;;;;;;4.00;4.00;;;;;24.03;30.93;100811.56;5013240;28;46891;-82
2022/07/29 00:02:45;;;;;;;;;4.00;4.00;;;;;23.98;31.47;100806.78;5013829;28;45752;-77
2022/07/29 00:05:13;;;;;;;;;4.00;4.00;;;;;23.96;30.81;100808.84;5013409;28;45661;-81
2022/07/29 00:07:39;;;;;;;;;4.50;4.00;;;;;23.94;30.95;100802.84;5013655;28;45669;-81
2022/07/29 00:10:04;;;;;;;;;5.00;4.50;;;;;23.93;31.64;100801.19;5012600;28;46507;-82
2022/07/29 00:12:30;;;;;;;;;4.25;4.25;;;;;23.88;31.30;100800.09;5013330;28;45754;-82
2022/07/29 00:14:56;;;;;;;;;5.25;4.00;;;;;23.83;31.28;100789.97;5012842;28;46141;-82
2022/07/29 00:17:25;;;;;;;;;6.00;5.25;;;;;23.79;31.71;100786.84;5012864;28;46710;-82
2022/07/29 00:19:51;;;;;;;;;6.00;5.00;;;;;23.84;31.56;100795.13;5012955;28;45530;-82
2022/07/29 00:22:17;;;;;;;;;4.00;4.00;;;;;23.74;31.16;100777.72;5013212;28;45733;-81
2022/07/29 00:24:42;;;;;;;;;4.00;3.50;;;;;23.72;32.03;100775.25;5012866;28;45736;-80
2022/07/29 00:27:08;;;;;;;;;6.00;5.00;;;;;23.75;31.45;100779.41;5012726;28;45641;-82
2022/07/29 00:29:33;;;;;;;;;5.75;5.75;;;;;23.73;31.82;100774.22;5013037;28;45998;-80
2022/07/29 00:31:59;;;;;;;;;4.25;4.25;;;;;23.68;31.80;100773.97;5012944;28;45848;-79
2022/07/29 00:37:08;;;;;;;;;4.75;4.25;;;;;23.68;32.32;100767.78;5005197;28;46156;-82
2022/07/29 00:39:33;;;;;;;;;6.00;5.25;;;;;23.73;32.02;100773.41;5012461;28;46058;-80
2022/07/29 00:42:02;;;;;;;;;5.00;5.00;;;;;23.71;32.15;100776.25;5012067;28;45834;-81
2022/07/29 00:44:28;;;;;;;;;5.25;5.25;;;;;23.68;32.66;100778.47;5011331;28;45893;-81
2022/07/29 00:46:53;;;;;;;;;5.00;4.25;;;;;23.63;32.54;100768.34;5014516;28;46070;-81
2022/07/29 00:49:18;;;;;;;;;5.00;4.25;;;;;23.66;32.71;100780.50;4997098;28;47482;-81
2022/07/29 00:51:44;;;;;;;;;6.50;5.00;;;;;23.56;32.48;100764.78;5012615;28;45697;-81
2022/07/29 00:54:09;;;;;;;;;5.00;5.00;;;;;23.53;32.98;100757.16;5011752;28;45749;-80
2022/07/29 00:56:35;;;;;;;;;6.25;5.50;;;;;23.52;32.37;100762.69;5001290;28;47508;-81
2022/07/29 00:59:00;;;;;;;;;5.00;4.75;;;;;23.59;32.48;100769.72;5012028;28;46248;-82
2022/07/29 01:01:27;;;;;;;;;4.75;4.25;;;;;23.58;33.10;100769.94;4994331;28;45700;-82
2022/07/29 01:03:53;;;;;;;;;4.75;4.75;;;;;23.47;32.52;100757.91;5012040;28;45785;-79
2022/07/29 01:06:19;;;;;;;;;4.50;4.25;;;;;23.48;33.18;100756.06;5012727;28;46714;-81
2022/07/29 01:08:49;;;;;;;;;3.50;3.50;;;;;23.52;33.29;100768.84;4994412;28;48415;-80
2022/07/29 01:11:16;;;;;;;;;4.25;4.25;;;;;23.44;32.98;100759.06;5012405;28;45789;-81
2022/07/29 01:13:44;;;;;;;;;6.25;5.00;;;;;23.40;33.06;100760.47;5011787;28;45669;-81
2022/07/29 01:16:37;;;;;;;;;4.00;4.00;;;;;23.38;33.12;100769.66;5012348;28;46680;-81
2022/07/29 01:19:40;;;;;;;;;5.75;5.25;;;;;23.38;33.24;100767.00;5001008;28;46563;-80
2022/07/29 01:22:51;;;;;;;;;5.50;4.50;;;;;23.34;32.89;100765.72;4916076;28;46070;-80
2022/07/29 01:25:38;;;;;;;;;4.75;4.75;;;;;23.31;32.94;100780.31;4913901;28;45771;-82
2022/07/29 01:28:22;;;;;;;;;5.00;4.50;;;;;23.29;33.52;100776.97;4912898;28;48487;-82
2022/07/29 01:30:51;;;;;;;;;5.00;5.00;;;;;23.27;33.20;100781.69;4920292;28;46155;-81
2022/07/29 01:36:11;;;;;;;;;6.00;5.00;;;;;23.19;33.59;100778.28;4931814;28;45734;-82
2022/07/29 01:38:39;;;;;;;;;4.50;4.25;;;;;23.15;33.51;100771.66;4922867;28;45820;-83
2022/07/29 01:41:17;;;;;;;;;4.50;4.00;;;;;23.21;33.71;100777.06;4926063;28;46815;-79
2022/07/29 01:43:59;;;;;;;;;5.00;4.50;;;;;23.19;33.30;100784.47;4931052;28;45784;-82
2022/07/29 01:46:30;;;;;;;;;4.75;4.50;;;;;23.13;33.44;100779.88;4918088;28;45851;-81
2022/07/29 01:49:05;;;;;;;;;6.00;5.00;;;;;23.09;33.35;100773.25;4928364;28;46548;-83
2022/07/29 01:51:47;;;;;;;;;6.00;5.00;;;;;23.08;33.94;100768.06;4915961;28;47573;-82
2022/07/29 01:54:26;;;;;;;;;6.25;4.75;;;;;23.02;33.76;100761.63;4911885;28;45826;-81
2022/07/29 01:56:56;;;;;;;;;5.75;5.00;;;;;23.18;33.35;100787.31;4932295;28;46269;-79
2022/07/29 01:59:23;;;;;;;;;5.25;5.00;;;;;23.12;33.27;100780.03;4956499;28;47717;-78
2022/07/29 02:01:53;;;;;;;;;5.50;5.00;;;;;23.14;33.96;100784.22;5013268;28;46627;-74
2022/07/29 02:04:20;;;;;;;;;5.00;4.00;;;;;23.12;33.93;100780.03;5011379;28;45807;-79
2022/07/29 02:06:51;;;;;;;;;4.00;4.00;;;;;23.15;33.69;100783.19;5011675;28;45642;-77
2022/07/29 02:09:19;;;;;;;;;4.25;4.25;;;;;23.10;33.65;100780.25;5009603;28;46487;-78
2022/07/29 02:11:50;;;;;;;;;6.00;5.25;;;;;23.14;33.99;100791.41;5011281;28;46198;-78
2022/07/29 02:14:18;;;;;;;;;5.50;5.50;;;;;23.09;33.86;100783.94;5010913;28;45876;-78
2022/07/29 02:16:45;;;;;;;;;5.00;5.00;;;;;23.05;33.62;100779.16;4993575;28;45583;-78
2022/07/29 02:19:13;;;;;;;;;7.00;5.25;;;;;23.00;33.49;100767.16;5011076;28;45682;-81
2022/07/29 02:21:40;;;;;;;;;4.75;4.00;;;;;23.09;34.05;100791.97;5010237;28;45729;-82
2022/07/29 02:24:08;;;;;;;;;5.75;5.00;;;;;22.99;34.00;100770.88;5010051;28;45894;-82
2022/07/29 02:26:33;;;;;;;;;5.00;4.50;;;;;23.07;34.19;100782.44;5011172;28;45923;-81
2022/07/29 02:29:01;;;;;;;;;6.00;5.25;;;;;23.08;34.27;100789.47;5010848;28;45898;-81
2022/07/29 02:31:32;;;;;;;;;5.00;5.00;;;;;22.99;33.77;100780.72;5010143;28;46050;-81
2022/07/29 02:34:00;;;;;;;;;4.00;4.00;;;;;23.00;33.84;100791.22;5015829;28;45815;-83
2022/07/29 02:36:28;;;;;;;;;6.00;5.00;;;;;22.96;34.42;100775.72;5020904;28;45531;-84
2022/07/29 02:38:57;;;;;;;;;4.75;4.00;;;;;23.02;33.88;100793.69;5017416;28;47052;-83
2022/07/29 02:41:43;;;;;;;;;6.00;6.00;;;;;23.00;34.34;100793.03;5015488;28;46013;-79
2022/07/29 02:44:16;;;;;;;;;4.50;4.50;;;;;23.01;34.41;100795.53;4954627;28;45687;-83
2022/07/29 02:47:02;;;;;;;;;6.25;5.25;;;;;23.00;34.28;100795.72;4947808;28;45734;-82
2022/07/29 02:49:36;;;;;;;;;6.25;6.25;;;;;22.99;34.50;100794.09;4953989;28;45763;-82
2022/07/29 02:52:08;;;;;;;;;4.50;4.25;;;;;22.97;34.49;100793.44;4956916;28;45699;-82
2022/07/29 02:54:41;;;;;;;;;8.00;7.00;;;;;22.93;35.38;100787.63;4955556;28;45838;-79
2022/07/29 02:57:14;;;;;;;;;7.00;6.50;;;;;22.86;35.12;100794.72;4955729;28;45747;-78
2022/07/29 02:59:44;;;;;;;;;7.00;7.00;;;;;22.81;35.86;100788.28;4944422;28;45628;-78
2022/07/29 03:02:11;;;;;;;;;8.00;7.00;;;;;22.81;35.92;100796.28;4950197;28;46012;-79
2022/07/29 03:04:40;;;;;;;;;6.75;6.00;;;;;22.79;35.85;100804.47;4951548;28;46155;-82
2022/07/29 03:07:06;;;;;;;;;9.75;8.00;;;;;22.70;36.39;100797.53;4954967;28;45918;-80
2022/07/29 03:09:33;;;;;;;;;6.25;6.00;;;;;22.56;36.70;100785.00;4957372;28;46384;-80
2022/07/29 03:12:00;;;;;;;;;8.00;8.00;;;;;22.51;36.72;100790.06;4955768;28;46304;-78
2022/07/29 03:14:26;;;;;;;;;7.75;6.50;;;;;22.47;37.08;100810.94;4958588;28;45775;-80
2022/07/29 03:16:52;;;;;;;;;8.00;7.25;;;;;22.35;37.00;100799.03;4947880;28;45929;-82
2022/07/29 03:19:20;;;;;;;;;7.00;7.00;;;;;22.35;37.71;100803.56;4949714;28;45793;-82
2022/07/29 03:21:45;;;;;;;;;8.00;7.00;;;;;22.24;37.93;100806.66;5000552;28;45960;-77
2022/07/29 03:24:26;;;;;;;;;7.25;7.00;;;;;22.17;38.02;100809.22;5020286;28;45704;-80
2022/07/29 03:26:51;;;;;;;;;6.75;6.25;;;;;22.12;37.82;100804.44;5021013;28;45833;-80
2022/07/29 03:29:17;;;;;;;;;6.75;6.00;;;;;22.10;37.86;100808.25;5020004;28;46082;-81
2022/07/29 03:31:42;;;;;;;;;7.75;7.25;;;;;22.04;38.10;100796.47;5018772;28;45805;-80
2022/07/29 03:34:07;;;;;;;;;7.00;7.00;;;;;22.01;38.38;100802.19;5020102;28;45678;-82
2022/07/29 03:36:33;;;;;;;;;8.75;7.25;;;;;22.04;37.99;100811.66;5020268;28;45610;-80
2022/07/29 03:39:00;;;;;;;;;12.00;8.75;;;;;22.01;38.00;100804.84;5020233;28;45774;-81
2022/07/29 03:41:26;;;;;;;;;8.75;8.00;;;;;21.93;38.36;100794.19;5001988;28;48147;-80
2022/07/29 03:43:53;;;;;;;;;7.00;6.00;;;;;21.95;38.44;100804.72;5018334;28;45575;-79
2022/07/29 03:46:22;;;;;;;;;7.00;7.00;;;;;21.93;38.19;100815.53;5017240;28;45745;-81
2022/07/29 03:48:50;;;;;;;;;8.75;7.25;;;;;21.90;38.69;100807.06;5021962;28;45751;-83
2022/07/29 03:51:15;;;;;;;;;8.00;6.75;;;;;21.92;38.60;100813.84;5004443;28;48173;-80
2022/07/29 03:53:41;;;;;;;;;8.75;8.75;;;;;21.92;38.59;100818.38;5014628;28;45838;-82
2022/07/29 03:56:09;;;;;;;;;6.75;5.75;;;;;21.72;38.35;100789.50;5015317;28;45956;-81
2022/07/29 03:58:35;;;;;;;;;7.00;7.00;;;;;21.80;38.46;100806.47;5015367;28;45744;-83
2022/07/29 04:01:01;;;;;;;;;3.75;3.25;;;;;21.74;39.03;100805.34;5014324;28;45781;-82
2022/07/29 04:03:27;;;;;;;;;6.75;6.75;;;;;21.70;38.99;100799.50;5014158;28;46147;-82
2022/07/29 04:06:05;;;;;;;;;7.75;5.75;;;;;21.75;38.81;100818.47;5001376;28;45922;-81
2022/07/29 04:08:31;;;;;;;;;8.50;8.00;;;;;21.74;39.12;100821.34;5013983;28;45767;-82
2022/07/29 04:10:57;;;;;;;;;8.50;7.00;;;;;21.69;38.94;100823.69;4995916;28;47695;-82
2022/07/29 04:13:22;;;;;;;;;9.00;7.00;;;;;21.61;39.25;100821.06;5012612;28;45713;-81
2022/07/29 04:15:48;;;;;;;;;9.25;7.25;;;;;21.54;38.79;100818.25;5014694;28;45856;-83
2022/07/29 04:18:13;;;;;;;;;6.50;6.25;;;;;21.59;38.89;100826.56;5013636;28;46349;-82
2022/07/29 04:20:39;;;;;;;;;7.75;7.50;;;;;21.47;39.03;100813.81;5013281;28;45750;-82
2022/07/29 04:23:04;;;;;;;;;7.50;6.50;;;;;21.49;38.94;100814.47;5013611;28;45637;-80
2022/07/29 04:25:29;;;;;;;;;9.50;7.00;;;;;21.50;39.00;100822.28;5014176;28;45752;-81
2022/07/29 04:28:01;;;;;;;;;7.75;7.00;;;;;21.43;39.04;100815.97;5013314;28;45780;-82
2022/07/29 04:30:26;;;;;;;;;7.00;7.00;;;;;21.44;39.13;100819.47;5014211;28;46019;-82
2022/07/29 04:32:52;;;;;;;;;8.25;8.00;;;;;21.47;38.74;100824.47;5013981;28;45658;-84
2022/07/29 04:35:18;;;;;;;;;7.25;7.00;;;;;21.47;38.73;100821.81;5015993;28;45547;-80
2022/07/29 04:37:44;;;;;;;;;6.75;6.25;;;;;21.44;39.13;100822.97;5016488;28;46550;-83
2022/07/29 04:40:09;;;;;;;;;8.00;6.75;;;;;21.50;39.11;100832.94;5014529;28;45836;-83
2022/07/29 04:42:35;;;;;;;;;8.25;7.00;;;;;21.48;38.97;100832.31;5013865;28;45808;-80
2022/07/29 04:45:00;;;;;;;;;7.75;7.75;;;;;21.51;39.15;100841.78;5013810;28;45774;-83
2022/07/29 04:47:26;;;;;;;;;6.50;6.00;;;;;21.44;38.96;100822.97;5018553;28;46719;-80
2022/07/29 04:49:51;;;;;;;;;7.00;6.75;;;;;21.49;39.15;100839.28;5019948;28;45807;-79
2022/07/29 04:52:16;;;;;;;;;5.25;5.25;;;;;21.42;39.04;100825.00;5013395;28;46012;-80
2022/07/29 04:54:42;;;;;;;;;7.00;7.00;;;;;21.39;38.92;100816.50;5012899;28;46277;-81
2022/07/29 04:57:07;;;;;;;;;7.00;6.50;;;;;21.48;39.18;100826.16;5012658;28;45765;-84
2022/07/29 04:59:32;;;;;;;;;10.50;9.25;;;;;21.51;38.71;100829.28;4995700;28;46249;-81
2022/07/29 05:01:58;;;;;;;;;10.00;8.50;;;;;21.57;39.00;100833.09;5012665;28;45652;-82
2022/07/29 05:04:23;;;;;;;;;10.00;8.50;;;;;21.57;38.45;100836.59;5013104;28;45641;-79
2022/07/29 05:06:48;;;;;;;;;6.75;5.75;;;;;21.55;38.63;100817.25;5012833;28;45899;-82
2022/07/29 05:09:14;;;;;;;;;6.00;6.00;;;;;21.68;38.34;100840.69;5012919;28;46997;-80
2022/07/29 05:11:39;;;;;;;;;6.00;6.00;;;;;21.68;38.44;100838.88;5012284;28;45665;-80
2022/07/29 05:14:05;;;;;;;;;6.25;5.50;;;;;21.69;38.24;100837.88;5011692;28;45599;-81
2022/07/29 05:16:30;;;;;;;;;4.50;4.50;;;;;21.68;38.48;100840.69;5013027;28;45821;-80
2022/07/29 05:18:56;;;;;;;;;7.50;6.25;;;;;21.71;38.81;100846.50;5012956;28;45728;-82
2022/07/29 05:21:21;;;;;;;;;7.50;6.75;;;;;21.64;38.75;100832.22;5012272;28;45634;-82
2022/07/29 05:23:46;;;;;;;;;5.50;5.50;;;;;21.68;38.57;100832.69;5012737;28;45791;-81
2022/07/29 05:26:12;;;;;;;;;8.00;6.00;;;;;21.65;38.52;100822.38;5012406;28;46722;-78
2022/07/29 05:28:37;;;;;;;;;8.25;7.50;;;;;21.70;38.38;100839.50;5012289;28;45907;-83
2022/07/29 05:31:03;;;;;;;;;5.75;5.50;;;;;21.71;38.32;100833.16;5011274;28;45798;-81
2022/07/29 05:33:28;;;;;;;;;7.00;7.00;;;;;21.74;38.79;100842.69;5011874;28;45767;-80
2022/07/29 05:35:54;;;;;;;;;6.00;6.00;;;;;21.75;38.51;100841.66;5011921;28;45737;-80
2022/07/29 05:38:19;;;;;;;;;6.25;6.00;;;;;21.70;38.22;100836.84;4998904;28;45695;-82
2022/07/29 05:40:44;;;;;;;;;5.25;5.00;;;;;21.80;37.93;100847.31;5011566;28;45674;-82
2022/07/29 05:43:10;;;;;;;;;6.25;5.75;;;;;21.88;38.41;100849.06;5011972;28;45832;-82
2022/07/29 05:45:35;;;;;;;;;8.00;6.50;;;;;21.90;38.54;100847.06;5013122;28;45633;-80
2022/07/29 05:48:01;;;;;;;;;6.75;5.75;;;;;21.92;38.57;100842.38;5014886;28;46272;-82
2022/07/29 05:50:26;;;;;;;;;7.00;5.50;;;;;21.95;38.64;100845.56;5015221;28;45668;-83
2022/07/29 05:52:52;;;;;;;;;6.00;6.00;;;;;22.00;38.27;100853.03;5014742;28;45662;-79
2022/07/29 05:55:17;;;;;;;;;8.75;6.50;;;;;21.95;38.11;100842.91;4983577;28;48711;-81
2022/07/29 05:57:44;;;;;;;;;7.25;6.25;;;;;21.98;38.49;100844.38;5015100;28;46257;-81
2022/07/29 06:00:10;;;;;;;;;8.25;7.00;;;;;22.01;38.58;100855.53;4995958;28;45761;-79
2022/07/29 06:02:36;;;;;;;;;7.50;6.00;;;;;22.10;38.47;100865.16;5013998;28;45500;-79
2022/07/29 06:05:01;;;;;;;;;7.25;7.25;;;;;22.07;38.47;100860.19;5013851;28;45538;-79
2022/07/29 06:07:27;;;;;;;;;6.25;5.75;;;;;22.12;38.40;100873.81;5013708;28;45649;-80
2022/07/29 06:09:52;;;;;;;;;7.25;6.00;;;;;22.09;38.13;100867.97;5013692;28;45513;-79
2022/07/29 06:12:19;;;;;;;;;7.75;6.50;;;;;22.13;38.64;100871.97;5013772;28;45588;-80
2022/07/29 06:14:45;;;;;;;;;8.25;6.50;;;;;22.15;38.46;100867.28;5014297;28;45564;-81
2022/07/29 06:17:11;;;;;;;;;7.50;7.00;;;;;22.21;38.86;100874.56;5015414;28;45611;-79
2022/07/29 06:19:37;;;;;;;;;10.00;9.00;;;;;22.25;38.47;100883.88;5019668;28;45744;-85
2022/07/29 06:22:03;;;;;;;;;9.00;8.00;;;;;22.23;38.48;100877.91;5019295;28;45683;-81
2022/07/29 06:24:41;;;;;;;;;8.00;6.00;;;;;22.25;38.39;100875.88;5023535;28;46810;-82
2022/07/29 06:27:06;;;;;;;;;8.50;6.25;;;;;22.22;38.82;100870.91;5005798;28;47051;-88
2022/07/29 06:29:32;;;;;;;;;9.25;7.75;;;;;22.23;38.91;100863.72;5026535;28;45716;-81
2022/07/29 06:32:02;;;;;;;;;7.00;6.00;;;;;22.36;38.82;100883.47;5026482;28;45736;-78
2022/07/29 06:34:27;;;;;;;;;7.00;7.00;;;;;22.28;38.52;100867.53;5025743;28;45698;-78
2022/07/29 06:36:52;;;;;;;;;9.50;9.00;;;;;22.34;38.45;100880.16;5006581;28;47130;-84
2022/07/29 06:39:19;;;;;;;;;9.50;8.75;;;;;22.42;38.51;100888.09;5025346;28;45491;-85
2022/07/29 06:41:50;;;;;;;;;8.00;7.00;;;;;22.34;38.69;100874.81;5008183;28;45458;-80
2022/07/29 06:44:17;;;;;;;;;6.00;6.00;;;;;22.42;38.76;100888.09;5028247;28;45678;-79
2022/07/29 06:46:43;;;;;;;;;9.75;8.00;;;;;22.34;39.01;100885.50;5026125;28;45518;-84
2022/07/29 06:49:09;;;;;;;;;9.50;7.25;;;;;22.34;38.61;100890.84;5027974;28;45425;-82
2022/07/29 06:51:35;;;;;;;;;7.25;7.25;;;;;22.20;38.92;100872.91;5030640;28;45620;-78
2022/07/29 06:54:00;;;;;;;;;9.50;8.50;;;;;22.27;38.94;100891.72;5010279;28;46639;-82
2022/07/29 06:56:26;;;;;;;;;7.00;6.25;;;;;22.22;38.87;100888.75;5027507;28;45562;-82
2022/07/29 07:02:13;;;;;;;;;8.75;7.50;;;;;22.26;39.25;100895.41;5022890;28;45548;-79
2022/07/29 07:04:39;;;;;;;;;7.50;7.00;;;;;22.22;38.73;100894.94;5024214;28;45601;-80
2022/07/29 07:07:04;;;;;;;;;7.50;6.00;;;;;22.21;38.80;100898.59;5026587;28;46200;-83
2022/07/29 07:09:30;;;;;;;;;7.00;5.00;;;;;22.17;38.65;100894.63;5029254;28;45744;-78
2022/07/29 07:11:55;;;;;;;;;8.00;7.25;;;;;22.12;38.96;100887.16;5028957;28;45341;-77
2022/07/29 07:14:21;;;;;;;;;7.00;7.00;;;;;22.12;38.66;100892.50;5029498;28;46677;-78
2022/07/29 07:16:46;;;;;;;;;10.00;8.00;;;;;22.19;39.34;100905.94;5028522;28;45470;-78
2022/07/29 07:19:11;;;;;;;;;7.75;6.00;;;;;22.16;38.71;100906.31;5028953;28;45896;-82
2022/07/29 07:21:37;;;;;;;;;10.00;8.75;;;;;22.24;38.71;100918.78;5029639;28;45481;-80
2022/07/29 07:24:02;;;;;;;;;9.75;8.00;;;;;22.23;38.59;100909.94;5029614;28;46779;-83
2022/07/29 07:26:28;;;;;;;;;8.00;7.00;;;;;22.30;39.05;100912.72;5009057;28;47620;-82
2022/07/29 07:32:16;;;;;;;;;8.00;6.50;;;;;22.30;38.38;100897.53;5027288;28;45600;-77
2022/07/29 07:34:42;;;;;;;;;8.00;7.00;;;;;22.39;38.55;100909.00;5027687;28;46777;-82
2022/07/29 07:37:08;;;;;;;;;6.00;6.00;;;;;22.45;38.67;100916.31;5030142;28;46209;-82
2022/07/29 07:39:34;;;;;;;;;8.25;7.50;;;;;22.45;38.63;100913.63;5030937;28;45781;-78
2022/07/29 07:42:01;;;;;;;;;8.00;7.75;;;;;22.60;38.49;100923.34;5030225;28;45507;-88
2022/07/29 07:44:26;;;;;;;;;8.00;6.50;;;;;22.61;38.37;100910.84;5026283;28;45599;-78
2022/07/29 07:46:52;;;;;;;;;7.50;7.00;;;;;22.71;38.14;100913.25;5026463;28;45701;-79
2022/07/29 07:49:18;;;;;;;;;7.75;7.50;;;;;22.77;38.69;100921.41;5032695;28;45628;-81
2022/07/29 07:51:43;;;;;;;;;7.75;6.50;;;;;22.84;38.14;100921.50;5029330;28;45445;-79
2022/07/29 07:54:08;;;;;;;;;5.00;4.25;;;;;22.85;38.01;100913.31;5022015;28;45566;-78
2022/07/29 07:56:34;;;;;;;;;6.50;6.50;;;;;23.00;38.09;100927.53;5027842;28;45488;-78
2022/07/29 08:02:21;;;;;;;;;7.00;5.00;;;;;23.16;37.76;100926.53;5032696;28;45622;-79
2022/07/29 08:04:47;;;;;;;;;6.00;6.00;;;;;23.18;38.04;100926.34;5015600;28;47395;-81
2022/07/29 08:07:14;;;;;;;;;5.25;4.75;;;;;23.22;37.48;100916.94;5032561;28;45626;-78
2022/07/29 08:09:40;;;;;;;;;7.25;7.25;;;;;23.34;37.68;100924.34;5031987;28;45679;-80
2022/07/29 08:12:05;;;;;;;;;8.00;5.25;;;;;23.37;37.33;100929.31;5031194;28;45887;-81
2022/07/29 08:14:32;;;;;;;;;6.25;5.25;;;;;23.42;37.19;100918.91;5012191;28;47552;-78
2022/07/29 08:16:57;;;;;;;;;5.00;5.00;;;;;23.48;37.70;100916.53;5013244;28;47056;-82
2022/07/29 08:19:23;;;;;;;;;7.00;6.00;;;;;23.50;37.05;100918.00;5030569;28;45297;-79
2022/07/29 08:21:48;;;;;;;;;5.00;4.75;;;;;23.58;36.69;100917.09;5032195;28;45581;-80
2022/07/29 08:27:00;;;;;;;;;7.00;6.75;;;;;23.70;36.39;100928.94;5016257;28;45704;-81
2022/07/29 08:32:49;;;;;;;;;6.50;6.00;;;;;23.79;35.91;100911.78;5031251;28;45849;-78
2022/07/29 08:35:14;;;;;;;;;4.75;4.50;;;;;23.84;35.68;100915.56;5028866;28;45559;-79
2022/07/29 08:37:40;;;;;;;;;5.75;5.75;;;;;23.90;36.40;100921.19;5026441;28;45651;-77
2022/07/29 08:40:06;;;;;;;;;4.50;4.00;;;;;23.95;36.09;100933.00;5009583;28;45512;-78
2022/07/29 08:42:32;;;;;;;;;5.75;5.75;;;;;23.95;35.63;100921.44;5012732;28;45511;-80
2022/07/29 08:44:58;;;;;;;;;5.00;5.00;;;;;24.06;35.73;100935.19;5030106;28;46452;-78
2022/07/29 08:47:26;;;;;;;;;5.00;4.75;;;;;24.09;35.56;100931.28;5029905;28;45471;-82
2022/07/29 08:49:52;;;;;;;;;6.25;5.50;;;;;24.12;35.64;100925.56;5027287;28;45512;-79
2022/07/29 08:52:19;;;;;;;;;4.00;4.00;;;;;24.15;35.12;100922.50;5030359;28;45302;-80
2022/07/29 08:54:47;;;;;;;;;6.50;6.50;;;;;24.25;35.18;100923.03;5031502;28;46728;-78
2022/07/29 08:57:14;;;;;;;;;4.25;3.75;;;;;24.25;35.42;100915.84;5030695;28;45869;-80
2022/07/29 09:03:04;;;;;;;;;5.00;5.00;;;;;24.47;35.20;100924.72;5028276;28;45634;-76
2022/07/29 09:05:31;;;;;;;;;2.75;2.75;;;;;24.54;34.95;100920.25;5010262;28;46914;-81
2022/07/29 09:07:57;;;;;;;;;5.00;5.00;;;;;24.57;34.81;100914.50;5030255;28;46379;-80
2022/07/29 09:10:22;;;;;;;;;5.50;5.00;;;;;24.64;34.27;100926.13;5009900;28;45541;-82
2022/07/29 09:12:48;;;;;;;;;5.25;4.00;;;;;24.68;34.51;100931.91;5008536;28;45595;-82
2022/07/29 09:15:14;;;;;;;;;4.25;4.25;;;;;24.73;33.55;100924.13;5027193;28;45560;-80
2022/07/29 09:17:45;;;;;;;;;6.25;4.75;;;;;24.68;33.46;100908.63;5026723;28;46358;-79
2022/07/29 09:20:16;;;;;;;;;4.50;4.50;;;;;24.72;34.13;100900.22;5026475;28;45693;-79
2022/07/29 09:22:41;;;;;;;;;4.00;3.75;;;;;24.81;33.52;100912.44;5025459;28;45519;-80
2022/07/29 09:25:08;;;;;;;;;4.00;4.00;;;;;24.83;33.53;100908.53;5026007;28;45579;-82
2022/07/29 09:27:34;;;;;;;;;6.00;5.00;;;;;24.93;33.69;100919.78;5027517;28;45453;-82
2022/07/29 09:33:23;;;;;;;;;3.50;3.50;;;;;25.03;33.25;100917.59;5027361;28;45602;-84
2022/07/29 09:36:09;;;;;;;;;3.00;2.00;;;;;25.01;33.02;100900.03;5027407;28;45816;-89
2022/07/29 09:38:36;;;;;;;;;3.75;3.75;;;;;25.07;33.31;100904.63;5020045;28;45479;-84
2022/07/29 09:41:03;;;;;;;;;3.00;2.00;;;;;25.16;32.71;100914.16;5019979;28;45883;-93
2022/07/29 09:43:29;;;;;;;;;4.00;3.00;;;;;25.21;32.71;100924.31;5000993;28;45682;-86
2022/07/29 09:45:55;;;;;;;;;4.00;4.00;;;;;25.21;32.79;100911.72;5019790;28;45574;-85
2022/07/29 09:48:23;;;;;;;;;4.00;4.00;;;;;25.26;32.50;100913.81;5001093;28;47430;-84
2022/07/29 09:50:50;;;;;;;;;3.00;3.00;;;;;25.27;32.93;100920.81;5017829;28;45534;-89
2022/07/29 09:53:37;;;;;;;;;3.00;3.00;;;;;25.34;32.65;100919.84;5000252;28;45614;-93
2022/07/29 09:56:04;;;;;;;;;2.75;2.75;;;;;25.28;32.71;100914.44;4999489;28;45721;-82
2022/07/29 09:58:29;;;;;;;;;3.25;3.25;;;;;25.38;32.77;100928.31;4998459;28;47681;-79
2022/07/29 10:00:56;;;;;;;;;4.00;4.00;;;;;25.38;32.45;100909.53;5018933;28;45720;-87
2022/07/29 10:03:22;;;;;;;;;3.75;3.75;;;;;25.47;32.44;100919.09;5005505;28;45666;-82
2022/07/29 10:06:10;;;;;;;;;4.50;3.25;;;;;25.52;32.48;100922.03;5024290;28;45500;-90
2022/07/29 10:08:36;;;;;;;;;3.50;2.75;;;;;25.55;32.35;100918.94;5021674;28;45871;-89
2022/07/29 10:11:18;;;;;;;;;4.00;4.00;;;;;25.62;32.49;100925.19;5020772;28;45468;-85
2022/07/29 10:13:46;;;;;;;;;3.25;3.25;;;;;25.68;32.47;100926.25;5020637;28;45855;-89
2022/07/29 10:16:12;;;;;;;;;3.00;3.00;;;;;25.69;32.42;100926.06;5024005;28;45755;-81
2022/07/29 10:18:39;;;;;;;;;3.75;3.75;;;;;25.69;32.59;100922.53;5025884;28;46114;-92
2022/07/29 10:21:05;;;;;;;;;5.00;4.00;;;;;25.76;32.12;100923.38;5020348;28;45762;-87
2022/07/29 10:23:31;;;;;;;;;4.00;3.00;;;;;25.80;32.06;100924.66;5018666;28;45593;-82
2022/07/29 10:25:57;;;;;;;;;4.00;4.00;;;;;25.79;32.05;100907.72;5019231;28;45805;-86
2022/07/29 10:28:23;;;;;;;;;6.00;5.00;;;;;25.85;32.36;100912.28;5019520;28;45566;-79
2022/07/29 10:30:51;;;;;;;;;3.00;3.00;;;;;25.90;31.83;100925.94;5019671;28;45567;-84
2022/07/29 10:33:49;;;;;;;;;4.00;3.00;;;;;25.94;31.92;100931.72;5001731;28;45572;-87
2022/07/29 10:37:08;;;;;;;;;4.75;4.75;;;;;25.99;31.69;100933.81;4939628;28;46086;-84
2022/07/29 10:39:49;;;;;;;;;4.75;3.75;;;;;26.02;31.76;100928.03;4886842;28;45875;-80
2022/07/29 10:42:24;;;;;;;;;4.00;4.00;;;;;25.98;32.00;100916.84;4947773;28;45872;-81
2022/07/29 10:44:51;;;;;;;;;4.00;3.25;;;;;26.05;31.52;100927.63;4947414;28;45809;-80
2022/07/29 10:47:24;;;;;;;;;4.00;4.00;;;;;26.05;31.40;100922.25;4943938;28;45644;-82
2022/07/29 10:50:00;;;;;;;;;5.50;5.00;;;;;26.05;31.33;100923.09;4942035;28;45671;-84
2022/07/29 10:52:56;;;;;;;;;4.00;3.25;;;;;26.09;31.37;100921.66;4939642;28;45749;-82
2022/07/29 10:55:39;;;;;;;;;5.50;4.25;;;;;26.18;30.76;100917.72;4936344;28;45678;-83
2022/07/29 11:01:31;;;;;;;;;4.00;4.00;;;;;26.31;31.38;100931.25;4936595;28;46163;-83
2022/07/29 11:03:56;;;;;;;;;4.75;3.75;;;;;26.33;31.27;100925.66;4936727;28;45793;-87
2022/07/29 11:06:22;;;;;;;;;4.75;3.25;;;;;26.37;31.14;100923.41;4936153;28;45692;-79
2022/07/29 11:09:18;;;;;;;;;4.00;4.00;;;;;26.48;31.10;100918.25;4935798;28;45676;-82
2022/07/29 11:11:45;;;;;;;;;4.00;4.00;;;;;26.46;31.04;100908.72;4962679;28;46223;-83
2022/07/29 11:18:08;;;;;;;;;5.50;5.00;;;;;26.65;30.68;100921.38;4996439;28;45762;-81
2022/07/29 11:20:53;;;;;;;;;4.00;4.00;;;;;26.72;30.77;100927.56;4936547;28;45652;-81
2022/07/29 11:23:20;;;;;;;;;5.00;4.25;;;;;26.82;30.61;100929.84;4937549;28;45896;-78
2022/07/29 11:26:07;;;;;;;;;5.00;4.00;;;;;26.87;30.98;100936.28;4937007;28;45545;-76
2022/07/29 11:28:35;;;;;;;;;5.00;4.00;;;;;26.91;30.09;100934.00;4937444;28;46022;-82
2022/07/29 11:31:01;;;;;;;;;6.25;5.00;;;;;27.00;30.29;100938.13;4940543;28;45605;-82
2022/07/29 11:33:28;;;;;;;;;4.00;4.00;;;;;26.94;30.78;100909.38;4941618;28;45854;-82
2022/07/29 11:36:15;;;;;;;;;4.50;4.00;;;;;27.03;30.36;100924.28;4940897;28;45788;-79
2022/07/29 11:38:43;;;;;;;;;4.00;4.00;;;;;27.10;30.34;100930.44;4943959;28;45675;-82
2022/07/29 11:41:24;;;;;;;;;3.50;3.50;;;;;27.14;30.29;100926.34;4943171;28;45693;-79
2022/07/29 11:43:52;;;;;;;;;5.50;4.50;;;;;27.16;30.32;100916.16;4939975;28;45885;-81
2022/07/29 11:46:50;;;;;;;;;5.00;5.00;;;;;27.30;30.01;100925.06;4939733;28;45706;-80
2022/07/29 11:49:22;;;;;;;;;4.00;4.00;;;;;27.40;30.54;100917.38;4939006;28;45858;-80
2022/07/29 11:51:56;;;;;;;;;4.50;4.50;;;;;27.45;30.61;100914.88;4938704;28;45832;-84
2022/07/29 11:54:33;;;;;;;;;5.25;5.00;;;;;27.52;30.35;100913.84;4971115;28;45982;-80
2022/07/29 11:56:58;;;;;;;;;6.00;5.00;;;;;27.57;29.81;100910.53;4999959;28;45476;-79
2022/07/29 11:59:24;;;;;;;;;6.00;5.00;;;;;27.58;29.82;100914.03;5018019;28;45861;-82
2022/07/29 12:01:58;;;;;;;;;4.00;4.00;;;;;27.61;29.30;100910.91;5018122;28;45625;-79
2022/07/29 12:04:24;;;;;;;;;5.00;4.00;;;;;27.65;29.48;100907.56;5020519;28;45641;-83
2022/07/29 12:06:54;;;;;;;;;5.00;5.00;;;;;27.63;29.21;100908.84;5018867;28;45648;-81